Tropical Cyclones
[Index]
Main Index Home Page Stock Weather Photos Extreme Storms Discussion Storm News and Storm Chasing Reports Tropical Cyclones / Hurricanes / Typhoons Weather Data and Links Wild Fires / Bushfires Weather Observation Techniques Weather Picture Catalogue Tornado Pictures and Reports Stock Video Footage and DVDs for sale
Season 2003-2004 Tropical Cyclone DEBBIE Track Map
Season 2003-2004 Summaries: [BoM-AU] [JTWC-AU] [JTWC-SIO] [JTWC-SPAC] [JTWC-SH]
<<- Previous TC | BoM 2003-2004 Season | Next TC ->>

click for intensity scale information  Lat/long Grid: Show Hide

 Date Labels: Show Hide

Bureau of Meteorology Tropical Cyclone Data

Name: DEBBIE
Number: 871 / 200304_02

16 Dec 2003 00:00 UTC to 23 Dec 2003 00:00 UTC

    date/time    lat    long    hPa   cat  kts
2003-12-16 00   10.0   140.4   1005         20          
2003-12-16 03   10.0   139.8   1004         20          
2003-12-16 06   10.0   139.4   1003         20          
2003-12-16 09   10.0   139.0   1003         20          
2003-12-16 12    9.9   138.6   1004         20          
2003-12-16 15    9.8   138.2   1004         20          
2003-12-16 18    9.7   138.0   1003         20          
2003-12-16 21    9.6   137.8   1003         20          
2003-12-17 00    9.4   137.4   1002         25          
2003-12-17 03    9.3   137.1   1001         25          
2003-12-17 06    9.3   136.6   1000         25          
2003-12-17 09    9.3   136.2    998         30          
2003-12-17 12    9.3   136.0    998         30          
2003-12-17 15    9.4   135.7    998         30          
2003-12-17 18    9.5   135.6    998         30          
2003-12-17 21    9.6   135.6    998         30          
2003-12-18 00    9.6   135.6    995    1    30          
2003-12-18 03    9.7   135.6    995    1    30          
2003-12-18 06    9.7   135.6    995    1    30          
2003-12-18 09    9.8   135.5    995    1    30          
2003-12-18 12    9.8   135.5    995    1    30          
2003-12-18 15    9.8   135.5    992    1    35          
2003-12-18 18    9.8   135.4    990    1    40          
2003-12-18 21    9.8   135.3    988    1    50          
2003-12-19 00    9.9   135.1    988    1    50          
2003-12-19 03   10.0   134.9    985    2    55          
2003-12-19 06   10.0   134.8    982    2    55          
2003-12-19 09   10.0   134.7    980    2    55          
2003-12-19 12   10.2   134.5    975    2    60          
2003-12-19 15   10.4   134.4    970    3    65          
2003-12-19 18   10.6   134.3    970    3    65          
2003-12-19 21   10.9   134.1    970    3    65          
2003-12-20 00   11.0   134.0    970    3    65          
2003-12-20 03   11.2   133.9    970    3    65          
2003-12-20 06   11.4   133.8    970    3    65          
2003-12-20 09   11.6   133.7    975    2    60          
2003-12-20 12   11.8   133.6    975    2    60          
2003-12-20 15   12.2   133.4    980    2    50          
2003-12-20 18   12.5   133.4    985    2    40          
2003-12-20 21   12.8   133.5    990    1    35          
2003-12-21 00   13.1   133.8    993    1    30          
2003-12-21 03   13.4   133.9    995    1    20          
2003-12-21 06   13.6   133.6    995    1    20          
2003-12-21 09   14.0   133.3    993    1    20          
2003-12-21 12   14.0   133.0    995    1    20          
2003-12-21 15   14.0   132.8    995    1    20          
2003-12-21 18   14.0   132.8    992    1    20          
2003-12-21 21   14.0   132.8    993    1    15          
2003-12-22 00   14.1   132.6    994    1    15          
2003-12-22 03   14.2   132.5    993    1    15          
2003-12-22 06   14.3   132.4    992    1    15          
2003-12-22 09   14.5   132.3    991    1    15          
2003-12-22 12   14.8   132.0    993    1    15          
2003-12-22 15   15.0   131.7    993    1    15          
2003-12-22 18   15.2   131.3    992    1    15          
2003-12-22 21   15.4   131.0    993    1    15          
2003-12-23 00   15.5   130.5    993    1    15          
Winds are 10-min average.

Tropical cyclone tracks developed by Michael Bath using data from the Bureau of Meteorology and Google Maps.


[Australian Severe Weather index] [Copyright Notice] [Email Contacts] [Search This Site] [Privacy Policy]
Document: tropical_cyclone_debbie.htm Updated: 29 June 2017